Andrews A F B, District of Columbia
Current Conditions -  °F | °C
As of 3:58 AM on Monday 24 Nov 2014 (Local Time) from KADW Reporting Station
Overcast Overcast  
Wind Chill: 64°   Ceiling: 1100
Heat Index: 64°   Visibility: 10mi
Dew Point: 63°   Wind: 21mph
Humidity: 95%   Direction: 170°S
Pressure: 29.66"   Gusts: 31mph
Location:  38.8022°N, 76.8857°W
Report Text: KADW 240858Z AUTO 17018G27KT 10SM OVC011 18/17 A2966 RMK AO2 PK WND 17029/51 SLP050 60005 T01790171 55019 $
Loading
Personal Weather Stations






























Interactive Weather Map New forecast layout! Learn more

10-Day Weather Forecast

Advertisements
Track Severe Weather on mobile